sensor_id;sensor_type;location;lat;lon;timestamp;P1;durP1;ratioP1;P2;durP2;ratioP2
49900;SDS011;35789;48.414;12.768;2022-11-12T00:00:00;78.7;;;7.3;;
49900;SDS011;35789;48.414;12.768;2022-11-12T00:05:00;78.7;;;7.3;;
49900;SDS011;35789;48.414;12.768;2022-11-12T00:10:00;27.4;;;5.3;;
49900;SDS011;35789;48.414;12.768;2022-11-12T00:15:00;27.4;;;5.3;;
49900;SDS011;35789;48.414;12.768;2022-11-12T00:20:00;27.4;;;5.3;;
49900;SDS011;35789;48.414;12.768;2022-11-12T00:25:00;27.4;;;5.3;;
49900;SDS011;35789;48.414;12.768;2022-11-12T00:30:00;27.4;;;5.3;;
49900;SDS011;35789;48.414;12.768;2022-11-12T00:35:00;27.4;;;5.3;;
49900;SDS011;35789;48.414;12.768;2022-11-12T00:40:00;51.1;;;6.7;;
49900;SDS011;35789;48.414;12.768;2022-11-12T00:45:00;51.1;;;6.7;;
49900;SDS011;35789;48.414;12.768;2022-11-12T00:50:00;51.1;;;6.7;;
49900;SDS011;35789;48.414;12.768;2022-11-12T00:55:00;51.1;;;6.7;;
49900;SDS011;35789;48.414;12.768;2022-11-12T01:00:00;51.1;;;6.7;;
49900;SDS011;35789;48.414;12.768;2022-11-12T01:05:00;51.1;;;6.7;;
49900;SDS011;35789;48.414;12.768;2022-11-12T01:10:00;31.6;;;6.0;;
49900;SDS011;35789;48.414;12.768;2022-11-12T01:15:00;31.6;;;6.0;;
49900;SDS011;35789;48.414;12.768;2022-11-12T01:20:00;31.6;;;6.0;;
49900;SDS011;35789;48.414;12.768;2022-11-12T01:25:00;31.6;;;6.0;;
49900;SDS011;35789;48.414;12.768;2022-11-12T01:30:02;31.6;;;6.0;;
49900;SDS011;35789;48.414;12.768;2022-11-12T01:35:00;31.6;;;6.0;;
49900;SDS011;35789;48.414;12.768;2022-11-12T01:40:00;55.3;;;6.6;;
49900;SDS011;35789;48.414;12.768;2022-11-12T01:45:00;55.3;;;6.6;;
49900;SDS011;35789;48.414;12.768;2022-11-12T01:50:05;55.3;;;6.6;;
49900;SDS011;35789;48.414;12.768;2022-11-12T01:55:02;55.3;;;6.6;;
49900;SDS011;35789;48.414;12.768;2022-11-12T02:00:05;55.3;;;6.6;;
49900;SDS011;35789;48.414;12.768;2022-11-12T02:05:01;55.3;;;6.6;;
49900;SDS011;35789;48.414;12.768;2022-11-12T02:10:01;152.5;;;9.0;;
49900;SDS011;35789;48.414;12.768;2022-11-12T02:15:00;152.5;;;9.0;;
49900;SDS011;35789;48.414;12.768;2022-11-12T02:20:01;152.5;;;9.0;;
49900;SDS011;35789;48.414;12.768;2022-11-12T02:25:00;152.5;;;9.0;;
49900;SDS011;35789;48.414;12.768;2022-11-12T02:30:00;152.5;;;9.0;;
49900;SDS011;35789;48.414;12.768;2022-11-12T02:35:00;152.5;;;9.0;;
49900;SDS011;35789;48.414;12.768;2022-11-12T02:40:00;38.7;;;5.0;;
49900;SDS011;35789;48.414;12.768;2022-11-12T02:45:00;38.7;;;5.0;;
49900;SDS011;35789;48.414;12.768;2022-11-12T02:50:00;38.7;;;5.0;;
49900;SDS011;35789;48.414;12.768;2022-11-12T02:55:00;38.7;;;5.0;;
49900;SDS011;35789;48.414;12.768;2022-11-12T03:00:00;38.7;;;5.0;;
49900;SDS011;35789;48.414;12.768;2022-11-12T03:05:00;38.7;;;5.0;;
49900;SDS011;35789;48.414;12.768;2022-11-12T03:10:00;136.5;;;8.3;;
49900;SDS011;35789;48.414;12.768;2022-11-12T03:15:00;136.5;;;8.3;;
49900;SDS011;35789;48.414;12.768;2022-11-12T03:20:00;136.5;;;8.3;;
49900;SDS011;35789;48.414;12.768;2022-11-12T03:25:00;136.5;;;8.3;;
49900;SDS011;35789;48.414;12.768;2022-11-12T03:30:00;136.5;;;8.3;;
49900;SDS011;35789;48.414;12.768;2022-11-12T03:35:00;136.5;;;8.3;;
49900;SDS011;35789;48.414;12.768;2022-11-12T03:40:00;43.4;;;5.0;;
49900;SDS011;35789;48.414;12.768;2022-11-12T03:45:00;43.4;;;5.0;;
49900;SDS011;35789;48.414;12.768;2022-11-12T03:50:00;43.4;;;5.0;;
49900;SDS011;35789;48.414;12.768;2022-11-12T03:55:00;43.4;;;5.0;;
49900;SDS011;35789;48.414;12.768;2022-11-12T04:00:00;43.4;;;5.0;;
49900;SDS011;35789;48.414;12.768;2022-11-12T04:05:00;43.4;;;5.0;;
49900;SDS011;35789;48.414;12.768;2022-11-12T04:10:00;11.2;;;3.1;;
49900;SDS011;35789;48.414;12.768;2022-11-12T04:15:00;11.2;;;3.1;;
49900;SDS011;35789;48.414;12.768;2022-11-12T04:20:00;11.2;;;3.1;;
49900;SDS011;35789;48.414;12.768;2022-11-12T04:25:00;11.2;;;3.1;;
49900;SDS011;35789;48.414;12.768;2022-11-12T04:30:00;11.2;;;3.1;;
49900;SDS011;35789;48.414;12.768;2022-11-12T04:35:00;11.2;;;3.1;;
49900;SDS011;35789;48.414;12.768;2022-11-12T04:40:00;14.8;;;2.6;;
49900;SDS011;35789;48.414;12.768;2022-11-12T04:45:00;14.8;;;2.6;;
49900;SDS011;35789;48.414;12.768;2022-11-12T04:50:01;14.8;;;2.6;;
49900;SDS011;35789;48.414;12.768;2022-11-12T04:55:00;14.8;;;2.6;;
49900;SDS011;35789;48.414;12.768;2022-11-12T05:00:00;14.8;;;2.6;;
49900;SDS011;35789;48.414;12.768;2022-11-12T05:05:00;14.8;;;2.6;;
49900;SDS011;35789;48.414;12.768;2022-11-12T05:10:00;58.0;;;3.9;;
49900;SDS011;35789;48.414;12.768;2022-11-12T05:15:00;58.0;;;3.9;;
49900;SDS011;35789;48.414;12.768;2022-11-12T05:20:00;58.0;;;3.9;;
49900;SDS011;35789;48.414;12.768;2022-11-12T05:25:00;58.0;;;3.9;;
49900;SDS011;35789;48.414;12.768;2022-11-12T05:30:00;58.0;;;3.9;;
49900;SDS011;35789;48.414;12.768;2022-11-12T05:35:00;58.0;;;3.9;;
49900;SDS011;35789;48.414;12.768;2022-11-12T05:40:00;11.4;;;2.5;;
49900;SDS011;35789;48.414;12.768;2022-11-12T05:45:00;11.4;;;2.5;;
49900;SDS011;35789;48.414;12.768;2022-11-12T05:50:00;11.4;;;2.5;;
49900;SDS011;35789;48.414;12.768;2022-11-12T05:55:00;11.4;;;2.5;;
49900;SDS011;35789;48.414;12.768;2022-11-12T06:00:00;11.4;;;2.5;;
49900;SDS011;35789;48.414;12.768;2022-11-12T06:05:00;5.0;;;2.4;;
49900;SDS011;35789;48.414;12.768;2022-11-12T06:10:00;5.0;;;2.4;;
49900;SDS011;35789;48.414;12.768;2022-11-12T06:15:00;5.0;;;2.4;;
49900;SDS011;35789;48.414;12.768;2022-11-12T06:20:00;5.0;;;2.4;;
49900;SDS011;35789;48.414;12.768;2022-11-12T06:25:00;5.0;;;2.4;;
49900;SDS011;35789;48.414;12.768;2022-11-12T06:30:00;5.0;;;2.4;;
49900;SDS011;35789;48.414;12.768;2022-11-12T06:35:00;26.0;;;3.5;;
49900;SDS011;35789;48.414;12.768;2022-11-12T06:40:00;26.0;;;3.5;;
49900;SDS011;35789;48.414;12.768;2022-11-12T06:45:00;26.0;;;3.5;;
49900;SDS011;35789;48.414;12.768;2022-11-12T06:50:00;26.0;;;3.5;;
49900;SDS011;35789;48.414;12.768;2022-11-12T06:55:00;26.0;;;3.5;;
49900;SDS011;35789;48.414;12.768;2022-11-12T07:00:00;26.0;;;3.5;;
49900;SDS011;35789;48.414;12.768;2022-11-12T07:05:00;15.8;;;2.9;;
49900;SDS011;35789;48.414;12.768;2022-11-12T07:10:00;15.8;;;2.9;;
49900;SDS011;35789;48.414;12.768;2022-11-12T07:15:00;15.8;;;2.9;;
49900;SDS011;35789;48.414;12.768;2022-11-12T07:20:00;15.8;;;2.9;;
49900;SDS011;35789;48.414;12.768;2022-11-12T07:25:00;15.8;;;2.9;;
49900;SDS011;35789;48.414;12.768;2022-11-12T07:30:00;15.8;;;2.9;;
49900;SDS011;35789;48.414;12.768;2022-11-12T07:35:00;11.1;;;2.9;;
49900;SDS011;35789;48.414;12.768;2022-11-12T07:40:00;11.1;;;2.9;;
49900;SDS011;35789;48.414;12.768;2022-11-12T07:45:00;11.1;;;2.9;;
49900;SDS011;35789;48.414;12.768;2022-11-12T07:50:00;11.1;;;2.9;;
49900;SDS011;35789;48.414;12.768;2022-11-12T07:55:00;11.1;;;2.9;;
49900;SDS011;35789;48.414;12.768;2022-11-12T08:00:00;11.1;;;2.9;;
49900;SDS011;35789;48.414;12.768;2022-11-12T08:05:00;12.4;;;3.9;;
49900;SDS011;35789;48.414;12.768;2022-11-12T08:10:00;12.4;;;3.9;;
49900;SDS011;35789;48.414;12.768;2022-11-12T08:15:00;12.4;;;3.9;;
49900;SDS011;35789;48.414;12.768;2022-11-12T08:20:00;12.4;;;3.9;;
49900;SDS011;35789;48.414;12.768;2022-11-12T08:25:00;12.4;;;3.9;;
49900;SDS011;35789;48.414;12.768;2022-11-12T08:30:00;12.4;;;3.9;;
49900;SDS011;35789;48.414;12.768;2022-11-12T08:35:00;16.1;;;3.9;;
49900;SDS011;35789;48.414;12.768;2022-11-12T08:40:00;16.1;;;3.9;;
49900;SDS011;35789;48.414;12.768;2022-11-12T08:45:00;16.1;;;3.9;;
49900;SDS011;35789;48.414;12.768;2022-11-12T08:50:00;16.1;;;3.9;;
49900;SDS011;35789;48.414;12.768;2022-11-12T08:55:00;16.1;;;3.9;;
49900;SDS011;35789;48.414;12.768;2022-11-12T09:00:00;16.1;;;3.9;;
49900;SDS011;35789;48.414;12.768;2022-11-12T09:05:00;22.2;;;8.0;;
49900;SDS011;35789;48.414;12.768;2022-11-12T09:10:00;22.2;;;8.0;;
49900;SDS011;35789;48.414;12.768;2022-11-12T09:15:00;22.2;;;8.0;;
49900;SDS011;35789;48.414;12.768;2022-11-12T09:20:00;22.2;;;8.0;;
49900;SDS011;35789;48.414;12.768;2022-11-12T09:25:00;22.2;;;8.0;;
49900;SDS011;35789;48.414;12.768;2022-11-12T09:30:00;22.2;;;8.0;;
49900;SDS011;35789;48.414;12.768;2022-11-12T09:35:00;19.0;;;10.4;;
49900;SDS011;35789;48.414;12.768;2022-11-12T09:40:00;19.0;;;10.4;;
49900;SDS011;35789;48.414;12.768;2022-11-12T09:45:05;19.0;;;10.4;;
49900;SDS011;35789;48.414;12.768;2022-11-12T09:50:05;19.0;;;10.4;;
49900;SDS011;35789;48.414;12.768;2022-11-12T09:55:06;19.0;;;10.4;;
49900;SDS011;35789;48.414;12.768;2022-11-12T10:00:00;19.0;;;10.4;;
49900;SDS011;35789;48.414;12.768;2022-11-12T10:05:09;33.5;;;12.8;;
49900;SDS011;35789;48.414;12.768;2022-11-12T10:10:03;33.5;;;12.8;;
49900;SDS011;35789;48.414;12.768;2022-11-12T10:15:13;33.5;;;12.8;;
49900;SDS011;35789;48.414;12.768;2022-11-12T10:20:08;33.5;;;12.8;;
49900;SDS011;35789;48.414;12.768;2022-11-12T10:25:12;33.5;;;12.8;;
49900;SDS011;35789;48.414;12.768;2022-11-12T10:30:02;33.5;;;12.8;;
49900;SDS011;35789;48.414;12.768;2022-11-12T10:35:00;27.6;;;9.4;;
49900;SDS011;35789;48.414;12.768;2022-11-12T10:45:17;27.6;;;9.4;;
49900;SDS011;35789;48.414;12.768;2022-11-12T10:50:04;27.6;;;9.4;;
49900;SDS011;35789;48.414;12.768;2022-11-12T10:55:04;27.6;;;9.4;;
49900;SDS011;35789;48.414;12.768;2022-11-12T11:00:14;27.6;;;9.4;;
49900;SDS011;35789;48.414;12.768;2022-11-12T11:05:18;21.8;;;12.8;;
49900;SDS011;35789;48.414;12.768;2022-11-12T11:10:00;21.8;;;12.8;;
49900;SDS011;35789;48.414;12.768;2022-11-12T11:15:06;21.8;;;12.8;;
49900;SDS011;35789;48.414;12.768;2022-11-12T11:20:01;21.8;;;12.8;;
49900;SDS011;35789;48.414;12.768;2022-11-12T11:25:11;21.8;;;12.8;;
49900;SDS011;35789;48.414;12.768;2022-11-12T11:30:09;21.8;;;12.8;;
49900;SDS011;35789;48.414;12.768;2022-11-12T11:35:10;17.7;;;12.0;;
49900;SDS011;35789;48.414;12.768;2022-11-12T11:40:05;17.7;;;12.0;;
49900;SDS011;35789;48.414;12.768;2022-11-12T11:45:07;17.7;;;12.0;;
49900;SDS011;35789;48.414;12.768;2022-11-12T11:50:09;17.7;;;12.0;;
49900;SDS011;35789;48.414;12.768;2022-11-12T11:55:11;17.7;;;12.0;;
49900;SDS011;35789;48.414;12.768;2022-11-12T12:00:10;17.7;;;12.0;;
49900;SDS011;35789;48.414;12.768;2022-11-12T12:05:10;11.2;;;7.2;;
49900;SDS011;35789;48.414;12.768;2022-11-12T12:10:05;11.2;;;7.2;;
49900;SDS011;35789;48.414;12.768;2022-11-12T12:15:10;11.2;;;7.2;;
49900;SDS011;35789;48.414;12.768;2022-11-12T12:20:07;11.2;;;7.2;;
49900;SDS011;35789;48.414;12.768;2022-11-12T12:25:02;11.2;;;7.2;;
49900;SDS011;35789;48.414;12.768;2022-11-12T12:30:03;11.2;;;7.2;;
49900;SDS011;35789;48.414;12.768;2022-11-12T12:35:03;14.0;;;8.9;;
49900;SDS011;35789;48.414;12.768;2022-11-12T12:40:04;14.0;;;8.9;;
49900;SDS011;35789;48.414;12.768;2022-11-12T12:45:07;14.0;;;8.9;;
49900;SDS011;35789;48.414;12.768;2022-11-12T12:50:02;14.0;;;8.9;;
49900;SDS011;35789;48.414;12.768;2022-11-12T12:55:00;14.0;;;8.9;;
49900;SDS011;35789;48.414;12.768;2022-11-12T13:05:00;18.1;;;11.0;;
49900;SDS011;35789;48.414;12.768;2022-11-12T13:15:11;18.1;;;11.0;;
49900;SDS011;35789;48.414;12.768;2022-11-12T13:25:03;18.1;;;11.0;;
49900;SDS011;35789;48.414;12.768;2022-11-12T13:30:00;18.1;;;11.0;;
49900;SDS011;35789;48.414;12.768;2022-11-12T13:35:19;11.8;;;8.0;;
49900;SDS011;35789;48.414;12.768;2022-11-12T13:40:02;11.8;;;8.0;;
49900;SDS011;35789;48.414;12.768;2022-11-12T13:45:00;11.8;;;8.0;;
49900;SDS011;35789;48.414;12.768;2022-11-12T13:50:00;11.8;;;8.0;;
49900;SDS011;35789;48.414;12.768;2022-11-12T13:55:01;11.8;;;8.0;;
49900;SDS011;35789;48.414;12.768;2022-11-12T14:00:17;11.8;;;8.0;;
49900;SDS011;35789;48.414;12.768;2022-11-12T14:05:00;17.3;;;10.2;;
49900;SDS011;35789;48.414;12.768;2022-11-12T14:10:05;17.3;;;10.2;;
49900;SDS011;35789;48.414;12.768;2022-11-12T14:15:12;17.3;;;10.2;;
49900;SDS011;35789;48.414;12.768;2022-11-12T14:20:16;17.3;;;10.2;;
49900;SDS011;35789;48.414;12.768;2022-11-12T14:25:00;17.3;;;10.2;;
49900;SDS011;35789;48.414;12.768;2022-11-12T14:30:10;17.3;;;10.2;;
49900;SDS011;35789;48.414;12.768;2022-11-12T14:35:23;19.8;;;12.1;;
49900;SDS011;35789;48.414;12.768;2022-11-12T14:40:00;19.8;;;12.1;;
49900;SDS011;35789;48.414;12.768;2022-11-12T14:45:00;19.8;;;12.1;;
49900;SDS011;35789;48.414;12.768;2022-11-12T14:50:00;19.8;;;12.1;;
49900;SDS011;35789;48.414;12.768;2022-11-12T14:55:06;19.8;;;12.1;;
49900;SDS011;35789;48.414;12.768;2022-11-12T15:00:18;19.8;;;12.1;;
49900;SDS011;35789;48.414;12.768;2022-11-12T15:05:03;21.6;;;11.9;;
49900;SDS011;35789;48.414;12.768;2022-11-12T15:15:06;21.6;;;11.9;;
49900;SDS011;35789;48.414;12.768;2022-11-12T15:20:03;21.6;;;11.9;;
49900;SDS011;35789;48.414;12.768;2022-11-12T15:25:09;21.6;;;11.9;;
49900;SDS011;35789;48.414;12.768;2022-11-12T15:30:11;21.6;;;11.9;;
49900;SDS011;35789;48.414;12.768;2022-11-12T15:35:00;41.3;;;13.0;;
49900;SDS011;35789;48.414;12.768;2022-11-12T15:40:08;41.3;;;13.0;;
49900;SDS011;35789;48.414;12.768;2022-11-12T15:45:02;41.3;;;13.0;;
49900;SDS011;35789;48.414;12.768;2022-11-12T15:50:13;41.3;;;13.0;;
49900;SDS011;35789;48.414;12.768;2022-11-12T15:55:00;41.3;;;13.0;;
49900;SDS011;35789;48.414;12.768;2022-11-12T16:00:03;41.3;;;13.0;;
49900;SDS011;35789;48.414;12.768;2022-11-12T16:05:00;28.0;;;11.5;;
49900;SDS011;35789;48.414;12.768;2022-11-12T16:10:00;28.0;;;11.5;;
49900;SDS011;35789;48.414;12.768;2022-11-12T16:15:00;28.0;;;11.5;;
49900;SDS011;35789;48.414;12.768;2022-11-12T16:20:00;28.0;;;11.5;;
49900;SDS011;35789;48.414;12.768;2022-11-12T16:25:00;28.0;;;11.5;;
49900;SDS011;35789;48.414;12.768;2022-11-12T16:30:00;28.0;;;11.5;;
49900;SDS011;35789;48.414;12.768;2022-11-12T16:35:00;43.7;;;10.6;;
49900;SDS011;35789;48.414;12.768;2022-11-12T16:40:00;43.7;;;10.6;;
49900;SDS011;35789;48.414;12.768;2022-11-12T16:45:00;43.7;;;10.6;;
49900;SDS011;35789;48.414;12.768;2022-11-12T16:50:00;43.7;;;10.6;;
49900;SDS011;35789;48.414;12.768;2022-11-12T16:55:00;43.7;;;10.6;;
49900;SDS011;35789;48.414;12.768;2022-11-12T17:00:00;43.7;;;10.6;;
49900;SDS011;35789;48.414;12.768;2022-11-12T17:05:01;33.4;;;10.4;;
49900;SDS011;35789;48.414;12.768;2022-11-12T17:10:00;33.4;;;10.4;;
49900;SDS011;35789;48.414;12.768;2022-11-12T17:15:00;33.4;;;10.4;;
49900;SDS011;35789;48.414;12.768;2022-11-12T17:20:00;33.4;;;10.4;;
49900;SDS011;35789;48.414;12.768;2022-11-12T17:25:00;33.4;;;10.4;;
49900;SDS011;35789;48.414;12.768;2022-11-12T17:30:00;33.4;;;10.4;;
49900;SDS011;35789;48.414;12.768;2022-11-12T17:35:00;37.5;;;11.5;;
49900;SDS011;35789;48.414;12.768;2022-11-12T17:40:00;37.5;;;11.5;;
49900;SDS011;35789;48.414;12.768;2022-11-12T17:45:00;37.5;;;11.5;;
49900;SDS011;35789;48.414;12.768;2022-11-12T17:50:00;37.5;;;11.5;;
49900;SDS011;35789;48.414;12.768;2022-11-12T17:55:00;37.5;;;11.5;;
49900;SDS011;35789;48.414;12.768;2022-11-12T18:00:00;37.5;;;11.5;;
49900;SDS011;35789;48.414;12.768;2022-11-12T18:05:00;134.4;;;12.1;;
49900;SDS011;35789;48.414;12.768;2022-11-12T18:10:00;134.4;;;12.1;;
49900;SDS011;35789;48.414;12.768;2022-11-12T18:15:00;134.4;;;12.1;;
49900;SDS011;35789;48.414;12.768;2022-11-12T18:20:00;134.4;;;12.1;;
49900;SDS011;35789;48.414;12.768;2022-11-12T18:25:00;134.4;;;12.1;;
49900;SDS011;35789;48.414;12.768;2022-11-12T18:30:00;134.4;;;12.1;;
49900;SDS011;35789;48.414;12.768;2022-11-12T18:35:00;51.8;;;8.9;;
49900;SDS011;35789;48.414;12.768;2022-11-12T18:40:00;51.8;;;8.9;;
49900;SDS011;35789;48.414;12.768;2022-11-12T18:45:00;51.8;;;8.9;;
49900;SDS011;35789;48.414;12.768;2022-11-12T18:50:00;51.8;;;8.9;;
49900;SDS011;35789;48.414;12.768;2022-11-12T18:55:00;51.8;;;8.9;;
49900;SDS011;35789;48.414;12.768;2022-11-12T19:00:00;51.8;;;8.9;;
49900;SDS011;35789;48.414;12.768;2022-11-12T19:05:00;81.9;;;8.9;;
49900;SDS011;35789;48.414;12.768;2022-11-12T19:10:00;81.9;;;8.9;;
49900;SDS011;35789;48.414;12.768;2022-11-12T19:15:00;81.9;;;8.9;;
49900;SDS011;35789;48.414;12.768;2022-11-12T19:20:00;81.9;;;8.9;;
49900;SDS011;35789;48.414;12.768;2022-11-12T19:25:00;81.9;;;8.9;;
49900;SDS011;35789;48.414;12.768;2022-11-12T19:30:00;81.9;;;8.9;;
49900;SDS011;35789;48.414;12.768;2022-11-12T19:35:00;107.9;;;11.1;;
49900;SDS011;35789;48.414;12.768;2022-11-12T19:40:00;107.9;;;11.1;;
49900;SDS011;35789;48.414;12.768;2022-11-12T19:45:00;107.9;;;11.1;;
49900;SDS011;35789;48.414;12.768;2022-11-12T19:50:00;107.9;;;11.1;;
49900;SDS011;35789;48.414;12.768;2022-11-12T19:55:00;107.9;;;11.1;;
49900;SDS011;35789;48.414;12.768;2022-11-12T20:00:00;107.9;;;11.1;;
49900;SDS011;35789;48.414;12.768;2022-11-12T20:05:00;127.7;;;9.7;;
49900;SDS011;35789;48.414;12.768;2022-11-12T20:10:00;127.7;;;9.7;;
49900;SDS011;35789;48.414;12.768;2022-11-12T20:15:00;127.7;;;9.7;;
49900;SDS011;35789;48.414;12.768;2022-11-12T20:20:00;127.7;;;9.7;;
49900;SDS011;35789;48.414;12.768;2022-11-12T20:25:00;127.7;;;9.7;;
49900;SDS011;35789;48.414;12.768;2022-11-12T20:30:00;65.3;;;6.2;;
49900;SDS011;35789;48.414;12.768;2022-11-12T20:35:00;65.3;;;6.2;;
49900;SDS011;35789;48.414;12.768;2022-11-12T20:40:00;65.3;;;6.2;;
49900;SDS011;35789;48.414;12.768;2022-11-12T20:45:00;65.3;;;6.2;;
49900;SDS011;35789;48.414;12.768;2022-11-12T20:50:00;65.3;;;6.2;;
49900;SDS011;35789;48.414;12.768;2022-11-12T20:55:00;65.3;;;6.2;;
49900;SDS011;35789;48.414;12.768;2022-11-12T21:00:00;83.3;;;7.7;;
49900;SDS011;35789;48.414;12.768;2022-11-12T21:05:00;83.3;;;7.7;;
49900;SDS011;35789;48.414;12.768;2022-11-12T21:10:00;83.3;;;7.7;;
49900;SDS011;35789;48.414;12.768;2022-11-12T21:15:00;83.3;;;7.7;;
49900;SDS011;35789;48.414;12.768;2022-11-12T21:20:00;83.3;;;7.7;;
49900;SDS011;35789;48.414;12.768;2022-11-12T21:25:00;83.3;;;7.7;;
49900;SDS011;35789;48.414;12.768;2022-11-12T21:30:00;63.2;;;6.1;;
49900;SDS011;35789;48.414;12.768;2022-11-12T21:35:00;63.2;;;6.1;;
49900;SDS011;35789;48.414;12.768;2022-11-12T21:40:00;63.2;;;6.1;;
49900;SDS011;35789;48.414;12.768;2022-11-12T21:45:00;63.2;;;6.1;;
49900;SDS011;35789;48.414;12.768;2022-11-12T21:50:00;63.2;;;6.1;;
49900;SDS011;35789;48.414;12.768;2022-11-12T21:55:00;63.2;;;6.1;;
49900;SDS011;35789;48.414;12.768;2022-11-12T22:00:00;66.9;;;5.9;;
49900;SDS011;35789;48.414;12.768;2022-11-12T22:05:00;66.9;;;5.9;;
49900;SDS011;35789;48.414;12.768;2022-11-12T22:10:00;66.9;;;5.9;;
49900;SDS011;35789;48.414;12.768;2022-11-12T22:15:00;66.9;;;5.9;;
49900;SDS011;35789;48.414;12.768;2022-11-12T22:20:00;66.9;;;5.9;;
49900;SDS011;35789;48.414;12.768;2022-11-12T22:25:00;66.9;;;5.9;;
49900;SDS011;35789;48.414;12.768;2022-11-12T22:30:00;24.9;;;3.6;;
49900;SDS011;35789;48.414;12.768;2022-11-12T22:35:00;24.9;;;3.6;;
49900;SDS011;35789;48.414;12.768;2022-11-12T22:40:00;24.9;;;3.6;;
49900;SDS011;35789;48.414;12.768;2022-11-12T22:45:00;24.9;;;3.6;;
49900;SDS011;35789;48.414;12.768;2022-11-12T22:50:00;24.9;;;3.6;;
49900;SDS011;35789;48.414;12.768;2022-11-12T22:55:00;24.9;;;3.6;;
49900;SDS011;35789;48.414;12.768;2022-11-12T23:00:00;16.5;;;3.7;;
49900;SDS011;35789;48.414;12.768;2022-11-12T23:05:00;16.5;;;3.7;;
49900;SDS011;35789;48.414;12.768;2022-11-12T23:10:00;16.5;;;3.7;;
49900;SDS011;35789;48.414;12.768;2022-11-12T23:15:00;16.5;;;3.7;;
49900;SDS011;35789;48.414;12.768;2022-11-12T23:20:00;16.5;;;3.7;;
49900;SDS011;35789;48.414;12.768;2022-11-12T23:25:00;16.5;;;3.7;;
49900;SDS011;35789;48.414;12.768;2022-11-12T23:30:00;6.5;;;3.7;;
49900;SDS011;35789;48.414;12.768;2022-11-12T23:35:00;6.5;;;3.7;;
49900;SDS011;35789;48.414;12.768;2022-11-12T23:40:00;6.5;;;3.7;;
49900;SDS011;35789;48.414;12.768;2022-11-12T23:45:00;6.5;;;3.7;;
49900;SDS011;35789;48.414;12.768;2022-11-12T23:50:00;6.5;;;3.7;;
49900;SDS011;35789;48.414;12.768;2022-11-12T23:55:00;6.5;;;3.7;;
